sensor_id;sensor_type;location;lat;lon;timestamp;P1;durP1;ratioP1;P2;durP2;ratioP2
34711;SDS011;20941;42.408;25.634;2023-03-11T00:01:47;17.60;;;8.02;;
34711;SDS011;20941;42.408;25.634;2023-03-11T00:04:13;15.68;;;8.13;;
34711;SDS011;20941;42.408;25.634;2023-03-11T00:06:38;17.58;;;8.18;;
34711;SDS011;20941;42.408;25.634;2023-03-11T00:09:03;16.52;;;9.25;;
34711;SDS011;20941;42.408;25.634;2023-03-11T00:11:29;20.67;;;10.63;;
34711;SDS011;20941;42.408;25.634;2023-03-11T00:13:54;15.98;;;8.27;;
34711;SDS011;20941;42.408;25.634;2023-03-11T00:16:19;21.42;;;8.82;;
34711;SDS011;20941;42.408;25.634;2023-03-11T00:18:45;15.88;;;8.00;;
34711;SDS011;20941;42.408;25.634;2023-03-11T00:21:14;13.25;;;7.35;;
34711;SDS011;20941;42.408;25.634;2023-03-11T00:23:41;22.20;;;8.60;;
34711;SDS011;20941;42.408;25.634;2023-03-11T00:26:06;21.65;;;8.25;;
34711;SDS011;20941;42.408;25.634;2023-03-11T00:28:31;21.50;;;10.27;;
34711;SDS011;20941;42.408;25.634;2023-03-11T00:30:57;19.23;;;9.55;;
34711;SDS011;20941;42.408;25.634;2023-03-11T00:33:22;19.42;;;8.85;;
34711;SDS011;20941;42.408;25.634;2023-03-11T00:35:48;18.95;;;8.05;;
34711;SDS011;20941;42.408;25.634;2023-03-11T00:38:14;14.55;;;7.80;;
34711;SDS011;20941;42.408;25.634;2023-03-11T00:40:40;21.42;;;8.35;;
34711;SDS011;20941;42.408;25.634;2023-03-11T00:43:06;15.95;;;7.47;;
34711;SDS011;20941;42.408;25.634;2023-03-11T00:45:31;14.02;;;7.07;;
34711;SDS011;20941;42.408;25.634;2023-03-11T00:47:57;21.15;;;9.18;;
34711;SDS011;20941;42.408;25.634;2023-03-11T00:50:24;20.55;;;8.43;;
34711;SDS011;20941;42.408;25.634;2023-03-11T00:52:50;20.38;;;8.60;;
34711;SDS011;20941;42.408;25.634;2023-03-11T00:55:23;16.70;;;8.68;;
34711;SDS011;20941;42.408;25.634;2023-03-11T00:57:52;17.77;;;8.85;;
34711;SDS011;20941;42.408;25.634;2023-03-11T01:00:19;18.67;;;9.63;;
34711;SDS011;20941;42.408;25.634;2023-03-11T01:02:44;19.10;;;9.70;;
34711;SDS011;20941;42.408;25.634;2023-03-11T01:05:10;19.27;;;8.80;;
34711;SDS011;20941;42.408;25.634;2023-03-11T01:07:35;23.02;;;8.85;;
34711;SDS011;20941;42.408;25.634;2023-03-11T01:10:01;17.80;;;8.70;;
34711;SDS011;20941;42.408;25.634;2023-03-11T01:12:26;18.52;;;7.95;;
34711;SDS011;20941;42.408;25.634;2023-03-11T01:14:52;19.58;;;8.55;;
34711;SDS011;20941;42.408;25.634;2023-03-11T01:17:17;21.17;;;8.48;;
34711;SDS011;20941;42.408;25.634;2023-03-11T01:19:42;19.73;;;8.40;;
34711;SDS011;20941;42.408;25.634;2023-03-11T01:22:09;17.20;;;8.50;;
34711;SDS011;20941;42.408;25.634;2023-03-11T01:24:34;20.63;;;7.97;;
34711;SDS011;20941;42.408;25.634;2023-03-11T01:26:59;21.95;;;7.95;;
34711;SDS011;20941;42.408;25.634;2023-03-11T01:29:25;18.70;;;7.00;;
34711;SDS011;20941;42.408;25.634;2023-03-11T01:31:50;13.07;;;6.75;;
34711;SDS011;20941;42.408;25.634;2023-03-11T01:34:15;17.83;;;8.35;;
34711;SDS011;20941;42.408;25.634;2023-03-11T01:36:41;20.48;;;8.25;;
34711;SDS011;20941;42.408;25.634;2023-03-11T01:39:06;18.45;;;8.10;;
34711;SDS011;20941;42.408;25.634;2023-03-11T01:41:31;18.05;;;7.47;;
34711;SDS011;20941;42.408;25.634;2023-03-11T01:43:57;17.00;;;7.75;;
34711;SDS011;20941;42.408;25.634;2023-03-11T01:48:48;18.00;;;7.45;;
34711;SDS011;20941;42.408;25.634;2023-03-11T01:51:15;16.85;;;7.10;;
34711;SDS011;20941;42.408;25.634;2023-03-11T01:53:41;16.38;;;6.47;;
34711;SDS011;20941;42.408;25.634;2023-03-11T01:56:06;15.95;;;6.38;;
34711;SDS011;20941;42.408;25.634;2023-03-11T01:58:36;18.92;;;5.47;;
34711;SDS011;20941;42.408;25.634;2023-03-11T02:01:02;17.33;;;5.50;;
34711;SDS011;20941;42.408;25.634;2023-03-11T02:03:29;16.60;;;6.15;;
34711;SDS011;20941;42.408;25.634;2023-03-11T02:05:55;12.93;;;6.25;;
34711;SDS011;20941;42.408;25.634;2023-03-11T02:08:21;12.80;;;6.40;;
34711;SDS011;20941;42.408;25.634;2023-03-11T02:10:47;16.35;;;5.97;;
34711;SDS011;20941;42.408;25.634;2023-03-11T02:13:12;10.38;;;5.38;;
34711;SDS011;20941;42.408;25.634;2023-03-11T02:15:38;10.93;;;5.65;;
34711;SDS011;20941;42.408;25.634;2023-03-11T02:18:04;14.38;;;5.28;;
34711;SDS011;20941;42.408;25.634;2023-03-11T02:23:14;13.07;;;5.35;;
34711;SDS011;20941;42.408;25.634;2023-03-11T02:28:07;16.45;;;5.22;;
34711;SDS011;20941;42.408;25.634;2023-03-11T02:30:34;14.35;;;5.40;;
34711;SDS011;20941;42.408;25.634;2023-03-11T02:32:59;16.63;;;5.45;;
34711;SDS011;20941;42.408;25.634;2023-03-11T02:35:25;10.80;;;5.25;;
34711;SDS011;20941;42.408;25.634;2023-03-11T02:37:51;12.65;;;4.70;;
34711;SDS011;20941;42.408;25.634;2023-03-11T02:42:49;11.18;;;5.63;;
34711;SDS011;20941;42.408;25.634;2023-03-11T02:45:16;10.70;;;5.28;;
34711;SDS011;20941;42.408;25.634;2023-03-11T02:47:42;16.85;;;5.40;;
34711;SDS011;20941;42.408;25.634;2023-03-11T02:50:08;16.30;;;5.78;;
34711;SDS011;20941;42.408;25.634;2023-03-11T02:52:34;15.20;;;5.70;;
34711;SDS011;20941;42.408;25.634;2023-03-11T02:55:00;13.80;;;5.75;;
34711;SDS011;20941;42.408;25.634;2023-03-11T02:57:25;15.70;;;6.43;;
34711;SDS011;20941;42.408;25.634;2023-03-11T02:59:51;10.55;;;5.68;;
34711;SDS011;20941;42.408;25.634;2023-03-11T03:02:16;14.27;;;5.85;;
34711;SDS011;20941;42.408;25.634;2023-03-11T03:04:42;16.02;;;5.70;;
34711;SDS011;20941;42.408;25.634;2023-03-11T03:07:07;14.93;;;6.22;;
34711;SDS011;20941;42.408;25.634;2023-03-11T03:09:33;13.07;;;5.65;;
34711;SDS011;20941;42.408;25.634;2023-03-11T03:11:59;15.43;;;5.18;;
34711;SDS011;20941;42.408;25.634;2023-03-11T03:14:24;18.50;;;6.75;;
34711;SDS011;20941;42.408;25.634;2023-03-11T03:16:50;15.77;;;6.10;;
34711;SDS011;20941;42.408;25.634;2023-03-11T03:19:15;15.23;;;6.18;;
34711;SDS011;20941;42.408;25.634;2023-03-11T03:21:41;16.13;;;6.07;;
34711;SDS011;20941;42.408;25.634;2023-03-11T03:24:06;16.88;;;6.70;;
34711;SDS011;20941;42.408;25.634;2023-03-11T03:26:31;18.73;;;6.03;;
34711;SDS011;20941;42.408;25.634;2023-03-11T03:28:57;17.92;;;6.72;;
34711;SDS011;20941;42.408;25.634;2023-03-11T03:31:22;14.93;;;6.65;;
34711;SDS011;20941;42.408;25.634;2023-03-11T03:33:47;13.73;;;6.65;;
34711;SDS011;20941;42.408;25.634;2023-03-11T03:36:13;16.98;;;6.47;;
34711;SDS011;20941;42.408;25.634;2023-03-11T03:38:39;17.23;;;7.10;;
34711;SDS011;20941;42.408;25.634;2023-03-11T03:41:04;16.95;;;8.40;;
34711;SDS011;20941;42.408;25.634;2023-03-11T03:43:30;23.85;;;9.85;;
34711;SDS011;20941;42.408;25.634;2023-03-11T03:45:56;27.35;;;10.13;;
34711;SDS011;20941;42.408;25.634;2023-03-11T03:48:21;16.92;;;8.57;;
34711;SDS011;20941;42.408;25.634;2023-03-11T03:50:47;19.40;;;8.40;;
34711;SDS011;20941;42.408;25.634;2023-03-11T03:53:12;16.48;;;7.93;;
34711;SDS011;20941;42.408;25.634;2023-03-11T03:55:37;20.73;;;8.50;;
34711;SDS011;20941;42.408;25.634;2023-03-11T03:58:03;18.27;;;8.23;;
34711;SDS011;20941;42.408;25.634;2023-03-11T04:00:28;15.05;;;7.85;;
34711;SDS011;20941;42.408;25.634;2023-03-11T04:02:53;20.80;;;8.25;;
34711;SDS011;20941;42.408;25.634;2023-03-11T04:05:19;15.38;;;8.25;;
34711;SDS011;20941;42.408;25.634;2023-03-11T04:07:44;22.00;;;8.48;;
34711;SDS011;20941;42.408;25.634;2023-03-11T04:10:12;28.92;;;9.15;;
34711;SDS011;20941;42.408;25.634;2023-03-11T04:12:37;24.30;;;8.70;;
34711;SDS011;20941;42.408;25.634;2023-03-11T04:15:03;24.67;;;9.82;;
34711;SDS011;20941;42.408;25.634;2023-03-11T04:17:28;30.30;;;10.02;;
34711;SDS011;20941;42.408;25.634;2023-03-11T04:19:53;49.70;;;11.82;;
34711;SDS011;20941;42.408;25.634;2023-03-11T04:22:19;27.23;;;8.55;;
34711;SDS011;20941;42.408;25.634;2023-03-11T04:24:44;24.77;;;7.97;;
34711;SDS011;20941;42.408;25.634;2023-03-11T04:27:09;22.48;;;8.32;;
34711;SDS011;20941;42.408;25.634;2023-03-11T04:29:35;22.27;;;8.13;;
34711;SDS011;20941;42.408;25.634;2023-03-11T04:32:00;24.00;;;8.02;;
34711;SDS011;20941;42.408;25.634;2023-03-11T04:34:25;19.10;;;8.07;;
34711;SDS011;20941;42.408;25.634;2023-03-11T04:36:52;19.35;;;8.00;;
34711;SDS011;20941;42.408;25.634;2023-03-11T04:39:17;17.90;;;7.90;;
34711;SDS011;20941;42.408;25.634;2023-03-11T04:41:43;20.33;;;8.50;;
34711;SDS011;20941;42.408;25.634;2023-03-11T04:44:08;22.60;;;8.38;;
34711;SDS011;20941;42.408;25.634;2023-03-11T04:46:33;18.10;;;8.05;;
34711;SDS011;20941;42.408;25.634;2023-03-11T04:48:59;17.60;;;8.65;;
34711;SDS011;20941;42.408;25.634;2023-03-11T04:51:24;23.48;;;8.73;;
34711;SDS011;20941;42.408;25.634;2023-03-11T04:53:49;29.42;;;9.57;;
34711;SDS011;20941;42.408;25.634;2023-03-11T04:56:15;22.38;;;9.70;;
34711;SDS011;20941;42.408;25.634;2023-03-11T04:58:40;29.45;;;10.32;;
34711;SDS011;20941;42.408;25.634;2023-03-11T05:01:05;23.90;;;9.30;;
34711;SDS011;20941;42.408;25.634;2023-03-11T05:03:31;26.20;;;9.68;;
34711;SDS011;20941;42.408;25.634;2023-03-11T05:05:56;29.35;;;10.52;;
34711;SDS011;20941;42.408;25.634;2023-03-11T05:08:22;28.85;;;9.77;;
34711;SDS011;20941;42.408;25.634;2023-03-11T05:10:48;32.95;;;9.55;;
34711;SDS011;20941;42.408;25.634;2023-03-11T05:13:13;28.50;;;9.13;;
34711;SDS011;20941;42.408;25.634;2023-03-11T05:15:38;32.97;;;11.75;;
34711;SDS011;20941;42.408;25.634;2023-03-11T05:18:04;71.32;;;12.32;;
34711;SDS011;20941;42.408;25.634;2023-03-11T05:20:29;71.10;;;13.40;;
34711;SDS011;20941;42.408;25.634;2023-03-11T05:22:56;42.67;;;9.55;;
34711;SDS011;20941;42.408;25.634;2023-03-11T05:25:21;38.45;;;8.75;;
34711;SDS011;20941;42.408;25.634;2023-03-11T05:27:47;35.92;;;8.88;;
34711;SDS011;20941;42.408;25.634;2023-03-11T05:30:12;54.30;;;9.80;;
34711;SDS011;20941;42.408;25.634;2023-03-11T05:32:39;33.88;;;9.10;;
34711;SDS011;20941;42.408;25.634;2023-03-11T05:35:04;34.22;;;9.98;;
34711;SDS011;20941;42.408;25.634;2023-03-11T05:37:30;40.22;;;10.38;;
34711;SDS011;20941;42.408;25.634;2023-03-11T05:39:56;50.08;;;11.00;;
34711;SDS011;20941;42.408;25.634;2023-03-11T05:42:21;45.90;;;11.93;;
34711;SDS011;20941;42.408;25.634;2023-03-11T05:44:46;45.55;;;12.43;;
34711;SDS011;20941;42.408;25.634;2023-03-11T05:47:12;44.45;;;12.07;;
34711;SDS011;20941;42.408;25.634;2023-03-11T05:49:37;58.80;;;17.98;;
34711;SDS011;20941;42.408;25.634;2023-03-11T05:52:03;31.58;;;12.45;;
34711;SDS011;20941;42.408;25.634;2023-03-11T05:54:28;24.90;;;9.60;;
34711;SDS011;20941;42.408;25.634;2023-03-11T05:56:53;24.38;;;9.70;;
34711;SDS011;20941;42.408;25.634;2023-03-11T05:59:19;17.08;;;9.63;;
34711;SDS011;20941;42.408;25.634;2023-03-11T06:01:45;26.63;;;11.07;;
34711;SDS011;20941;42.408;25.634;2023-03-11T06:04:10;23.70;;;11.15;;
34711;SDS011;20941;42.408;25.634;2023-03-11T06:06:37;29.15;;;10.88;;
34711;SDS011;20941;42.408;25.634;2023-03-11T06:09:03;30.90;;;11.43;;
34711;SDS011;20941;42.408;25.634;2023-03-11T06:11:28;26.60;;;11.45;;
34711;SDS011;20941;42.408;25.634;2023-03-11T06:13:54;29.27;;;12.75;;
34711;SDS011;20941;42.408;25.634;2023-03-11T06:16:20;24.77;;;10.20;;
34711;SDS011;20941;42.408;25.634;2023-03-11T06:18:46;26.42;;;10.43;;
34711;SDS011;20941;42.408;25.634;2023-03-11T06:21:15;24.70;;;9.18;;
34711;SDS011;20941;42.408;25.634;2023-03-11T06:23:41;18.30;;;9.73;;
34711;SDS011;20941;42.408;25.634;2023-03-11T06:26:08;23.10;;;11.90;;
34711;SDS011;20941;42.408;25.634;2023-03-11T06:28:34;18.85;;;9.88;;
34711;SDS011;20941;42.408;25.634;2023-03-11T06:31:07;24.85;;;10.85;;
34711;SDS011;20941;42.408;25.634;2023-03-11T06:33:33;20.42;;;9.65;;
34711;SDS011;20941;42.408;25.634;2023-03-11T06:35:58;15.50;;;8.40;;
34711;SDS011;20941;42.408;25.634;2023-03-11T06:38:24;15.55;;;8.40;;
34711;SDS011;20941;42.408;25.634;2023-03-11T06:40:50;15.50;;;8.63;;
34711;SDS011;20941;42.408;25.634;2023-03-11T06:43:15;15.75;;;7.60;;
34711;SDS011;20941;42.408;25.634;2023-03-11T06:45:40;13.70;;;8.05;;
34711;SDS011;20941;42.408;25.634;2023-03-11T06:48:06;12.40;;;7.38;;
34711;SDS011;20941;42.408;25.634;2023-03-11T06:50:31;16.08;;;7.97;;
34711;SDS011;20941;42.408;25.634;2023-03-11T06:52:56;15.40;;;6.80;;
34711;SDS011;20941;42.408;25.634;2023-03-11T06:55:22;14.45;;;6.60;;
34711;SDS011;20941;42.408;25.634;2023-03-11T06:57:48;11.63;;;6.20;;
34711;SDS011;20941;42.408;25.634;2023-03-11T07:00:13;15.55;;;6.55;;
34711;SDS011;20941;42.408;25.634;2023-03-11T07:02:39;10.85;;;5.80;;
34711;SDS011;20941;42.408;25.634;2023-03-11T07:05:04;14.05;;;6.43;;
34711;SDS011;20941;42.408;25.634;2023-03-11T07:07:30;10.60;;;6.05;;
34711;SDS011;20941;42.408;25.634;2023-03-11T07:09:55;11.63;;;5.53;;
34711;SDS011;20941;42.408;25.634;2023-03-11T07:12:22;13.10;;;5.32;;
34711;SDS011;20941;42.408;25.634;2023-03-11T07:14:53;10.00;;;4.47;;
34711;SDS011;20941;42.408;25.634;2023-03-11T07:17:18;11.00;;;4.60;;
34711;SDS011;20941;42.408;25.634;2023-03-11T07:19:43;10.75;;;4.78;;
34711;SDS011;20941;42.408;25.634;2023-03-11T07:22:08;11.18;;;5.65;;
34711;SDS011;20941;42.408;25.634;2023-03-11T07:24:34;10.20;;;4.32;;
34711;SDS011;20941;42.408;25.634;2023-03-11T07:26:59;9.93;;;4.40;;
34711;SDS011;20941;42.408;25.634;2023-03-11T07:29:24;8.45;;;4.13;;
34711;SDS011;20941;42.408;25.634;2023-03-11T07:31:50;6.15;;;2.85;;
34711;SDS011;20941;42.408;25.634;2023-03-11T07:34:15;6.00;;;2.47;;
34711;SDS011;20941;42.408;25.634;2023-03-11T07:36:41;7.38;;;2.30;;
34711;SDS011;20941;42.408;25.634;2023-03-11T07:39:06;3.10;;;2.22;;
34711;SDS011;20941;42.408;25.634;2023-03-11T07:41:32;2.30;;;1.70;;
34711;SDS011;20941;42.408;25.634;2023-03-11T07:43:58;2.97;;;1.65;;
34711;SDS011;20941;42.408;25.634;2023-03-11T07:46:24;3.35;;;1.67;;
34711;SDS011;20941;42.408;25.634;2023-03-11T07:48:50;5.30;;;2.15;;
34711;SDS011;20941;42.408;25.634;2023-03-11T07:51:16;2.88;;;1.48;;
34711;SDS011;20941;42.408;25.634;2023-03-11T07:53:42;7.97;;;2.20;;
34711;SDS011;20941;42.408;25.634;2023-03-11T07:56:09;9.13;;;2.95;;
34711;SDS011;20941;42.408;25.634;2023-03-11T07:58:35;4.10;;;2.22;;
34711;SDS011;20941;42.408;25.634;2023-03-11T08:01:07;21.52;;;3.80;;
34711;SDS011;20941;42.408;25.634;2023-03-11T08:03:34;13.57;;;2.78;;
34711;SDS011;20941;42.408;25.634;2023-03-11T08:05:59;19.55;;;3.17;;
34711;SDS011;20941;42.408;25.634;2023-03-11T08:08:24;4.18;;;2.20;;
34711;SDS011;20941;42.408;25.634;2023-03-11T08:10:50;4.07;;;1.50;;
34711;SDS011;20941;42.408;25.634;2023-03-11T08:13:15;3.25;;;1.27;;
34711;SDS011;20941;42.408;25.634;2023-03-11T08:15:40;4.97;;;1.50;;
34711;SDS011;20941;42.408;25.634;2023-03-11T08:18:06;8.18;;;1.92;;
34711;SDS011;20941;42.408;25.634;2023-03-11T08:20:31;11.98;;;3.92;;
34711;SDS011;20941;42.408;25.634;2023-03-11T08:22:56;7.97;;;2.47;;
34711;SDS011;20941;42.408;25.634;2023-03-11T08:25:22;6.82;;;1.95;;
34711;SDS011;20941;42.408;25.634;2023-03-11T08:27:47;8.88;;;2.42;;
34711;SDS011;20941;42.408;25.634;2023-03-11T08:30:13;6.82;;;1.73;;
34711;SDS011;20941;42.408;25.634;2023-03-11T08:32:38;5.78;;;1.92;;
34711;SDS011;20941;42.408;25.634;2023-03-11T08:35:04;6.53;;;2.42;;
34711;SDS011;20941;42.408;25.634;2023-03-11T08:37:29;10.43;;;3.67;;
34711;SDS011;20941;42.408;25.634;2023-03-11T08:39:55;2.33;;;1.70;;
34711;SDS011;20941;42.408;25.634;2023-03-11T08:42:20;8.15;;;1.75;;
34711;SDS011;20941;42.408;25.634;2023-03-11T08:44:46;5.85;;;1.80;;
34711;SDS011;20941;42.408;25.634;2023-03-11T08:47:11;3.88;;;1.85;;
34711;SDS011;20941;42.408;25.634;2023-03-11T08:49:37;8.05;;;2.70;;
34711;SDS011;20941;42.408;25.634;2023-03-11T08:52:02;2.05;;;1.45;;
34711;SDS011;20941;42.408;25.634;2023-03-11T08:54:28;3.28;;;1.40;;
34711;SDS011;20941;42.408;25.634;2023-03-11T08:56:54;7.93;;;1.83;;
34711;SDS011;20941;42.408;25.634;2023-03-11T08:59:19;4.60;;;1.33;;
34711;SDS011;20941;42.408;25.634;2023-03-11T09:01:44;3.25;;;1.90;;
34711;SDS011;20941;42.408;25.634;2023-03-11T09:04:10;3.08;;;1.38;;
34711;SDS011;20941;42.408;25.634;2023-03-11T09:06:36;1.33;;;1.23;;
34711;SDS011;20941;42.408;25.634;2023-03-11T09:09:01;4.68;;;1.45;;
34711;SDS011;20941;42.408;25.634;2023-03-11T09:11:27;5.47;;;1.60;;
34711;SDS011;20941;42.408;25.634;2023-03-11T09:13:53;3.33;;;1.50;;
34711;SDS011;20941;42.408;25.634;2023-03-11T09:16:19;5.10;;;2.13;;
34711;SDS011;20941;42.408;25.634;2023-03-11T09:18:45;3.25;;;1.42;;
34711;SDS011;20941;42.408;25.634;2023-03-11T09:21:11;6.30;;;2.10;;
34711;SDS011;20941;42.408;25.634;2023-03-11T09:23:37;4.55;;;2.05;;
34711;SDS011;20941;42.408;25.634;2023-03-11T09:26:02;6.93;;;1.63;;
34711;SDS011;20941;42.408;25.634;2023-03-11T09:28:28;1.17;;;1.08;;
34711;SDS011;20941;42.408;25.634;2023-03-11T09:30:53;6.00;;;2.33;;
34711;SDS011;20941;42.408;25.634;2023-03-11T09:33:18;4.20;;;1.80;;
34711;SDS011;20941;42.408;25.634;2023-03-11T09:35:44;1.45;;;1.13;;
34711;SDS011;20941;42.408;25.634;2023-03-11T09:38:10;1.25;;;1.00;;
34711;SDS011;20941;42.408;25.634;2023-03-11T09:40:51;1.25;;;1.00;;
34711;SDS011;20941;42.408;25.634;2023-03-11T09:43:25;8.07;;;2.03;;
34711;SDS011;20941;42.408;25.634;2023-03-11T09:45:54;2.58;;;0.80;;
34711;SDS011;20941;42.408;25.634;2023-03-11T09:48:28;5.05;;;1.70;;
34711;SDS011;20941;42.408;25.634;2023-03-11T09:53:28;8.95;;;2.08;;
34711;SDS011;20941;42.408;25.634;2023-03-11T09:55:58;5.57;;;1.60;;
34711;SDS011;20941;42.408;25.634;2023-03-11T09:58:40;7.82;;;2.03;;
34711;SDS011;20941;42.408;25.634;2023-03-11T10:01:49;4.85;;;1.52;;
34711;SDS011;20941;42.408;25.634;2023-03-11T10:04:00;2.40;;;0.90;;
34711;SDS011;20941;42.408;25.634;2023-03-11T10:06:28;1.15;;;1.02;;
34711;SDS011;20941;42.408;25.634;2023-03-11T10:27:16;6.05;;;1.50;;
34711;SDS011;20941;42.408;25.634;2023-03-11T10:29:50;2.45;;;1.25;;
34711;SDS011;20941;42.408;25.634;2023-03-11T10:32:24;6.15;;;1.40;;
34711;SDS011;20941;42.408;25.634;2023-03-11T10:37:38;1.38;;;1.00;;
34711;SDS011;20941;42.408;25.634;2023-03-11T10:42:39;4.57;;;1.30;;
34711;SDS011;20941;42.408;25.634;2023-03-11T10:45:10;2.17;;;1.30;;
34711;SDS011;20941;42.408;25.634;2023-03-11T10:47:36;2.05;;;0.80;;
34711;SDS011;20941;42.408;25.634;2023-03-11T10:50:01;1.08;;;0.98;;
34711;SDS011;20941;42.408;25.634;2023-03-11T10:52:27;3.90;;;1.40;;
34711;SDS011;20941;42.408;25.634;2023-03-11T10:54:59;1.45;;;0.90;;
34711;SDS011;20941;42.408;25.634;2023-03-11T10:57:26;1.65;;;0.88;;
34711;SDS011;20941;42.408;25.634;2023-03-11T10:59:52;1.45;;;1.00;;
34711;SDS011;20941;42.408;25.634;2023-03-11T11:07:36;1.40;;;1.20;;
34711;SDS011;20941;42.408;25.634;2023-03-11T11:12:35;2.67;;;0.70;;
34711;SDS011;20941;42.408;25.634;2023-03-11T11:15:01;1.27;;;0.70;;
34711;SDS011;20941;42.408;25.634;2023-03-11T11:17:27;2.80;;;1.85;;
34711;SDS011;20941;42.408;25.634;2023-03-11T11:19:55;16.73;;;4.85;;
34711;SDS011;20941;42.408;25.634;2023-03-11T11:22:22;15.10;;;4.68;;
34711;SDS011;20941;42.408;25.634;2023-03-11T11:24:48;16.27;;;3.97;;
34711;SDS011;20941;42.408;25.634;2023-03-11T11:29:41;5.80;;;1.63;;
34711;SDS011;20941;42.408;25.634;2023-03-11T11:37:10;5.17;;;1.10;;
34711;SDS011;20941;42.408;25.634;2023-03-11T11:39:46;26.35;;;4.28;;
34711;SDS011;20941;42.408;25.634;2023-03-11T11:42:15;8.25;;;2.17;;
34711;SDS011;20941;42.408;25.634;2023-03-11T11:44:42;10.88;;;2.75;;
34711;SDS011;20941;42.408;25.634;2023-03-11T11:47:32;13.43;;;4.70;;
34711;SDS011;20941;42.408;25.634;2023-03-11T11:50:00;11.00;;;4.40;;
34711;SDS011;20941;42.408;25.634;2023-03-11T11:52:34;13.02;;;5.05;;
34711;SDS011;20941;42.408;25.634;2023-03-11T11:55:01;8.82;;;3.17;;
34711;SDS011;20941;42.408;25.634;2023-03-11T11:57:28;7.97;;;2.47;;
34711;SDS011;20941;42.408;25.634;2023-03-11T11:59:53;16.52;;;6.43;;
34711;SDS011;20941;42.408;25.634;2023-03-11T12:09:59;6.45;;;2.25;;
34711;SDS011;20941;42.408;25.634;2023-03-11T12:12:35;1.50;;;1.30;;
34711;SDS011;20941;42.408;25.634;2023-03-11T12:17:32;1.42;;;1.10;;
34711;SDS011;20941;42.408;25.634;2023-03-11T12:20:05;0.70;;;0.68;;
34711;SDS011;20941;42.408;25.634;2023-03-11T12:30:40;1.85;;;1.20;;
34711;SDS011;20941;42.408;25.634;2023-03-11T12:35:36;2.05;;;1.55;;
34711;SDS011;20941;42.408;25.634;2023-03-11T12:45:52;5.15;;;2.13;;
34711;SDS011;20941;42.408;25.634;2023-03-11T12:50:53;3.67;;;2.25;;
34711;SDS011;20941;42.408;25.634;2023-03-11T12:53:19;2.53;;;1.95;;
34711;SDS011;20941;42.408;25.634;2023-03-11T12:56:00;4.05;;;2.17;;
34711;SDS011;20941;42.408;25.634;2023-03-11T12:58:35;4.75;;;1.85;;
34711;SDS011;20941;42.408;25.634;2023-03-11T13:01:08;2.65;;;1.88;;
34711;SDS011;20941;42.408;25.634;2023-03-11T13:03:38;4.63;;;2.45;;
34711;SDS011;20941;42.408;25.634;2023-03-11T13:08:51;4.82;;;2.13;;
34711;SDS011;20941;42.408;25.634;2023-03-11T13:11:33;4.80;;;1.75;;
34711;SDS011;20941;42.408;25.634;2023-03-11T13:16:44;3.20;;;1.50;;
34711;SDS011;20941;42.408;25.634;2023-03-11T13:21:50;2.63;;;0.93;;
34711;SDS011;20941;42.408;25.634;2023-03-11T13:42:35;0.70;;;0.70;;
34711;SDS011;20941;42.408;25.634;2023-03-11T13:45:06;0.57;;;0.55;;
34711;SDS011;20941;42.408;25.634;2023-03-11T13:47:31;2.05;;;0.80;;
34711;SDS011;20941;42.408;25.634;2023-03-11T13:50:04;2.28;;;0.60;;
34711;SDS011;20941;42.408;25.634;2023-03-11T13:52:49;0.75;;;0.70;;
34711;SDS011;20941;42.408;25.634;2023-03-11T13:55:18;1.27;;;0.60;;
34711;SDS011;20941;42.408;25.634;2023-03-11T13:57:57;0.60;;;0.60;;
34711;SDS011;20941;42.408;25.634;2023-03-11T14:00:24;1.77;;;0.85;;
34711;SDS011;20941;42.408;25.634;2023-03-11T14:02:53;0.88;;;0.60;;
34711;SDS011;20941;42.408;25.634;2023-03-11T14:05:29;2.67;;;0.77;;
34711;SDS011;20941;42.408;25.634;2023-03-11T14:07:54;0.60;;;0.60;;
34711;SDS011;20941;42.408;25.634;2023-03-11T14:10:35;1.50;;;0.65;;
34711;SDS011;20941;42.408;25.634;2023-03-11T14:13:16;2.63;;;1.30;;
34711;SDS011;20941;42.408;25.634;2023-03-11T14:15:44;3.28;;;1.83;;
34711;SDS011;20941;42.408;25.634;2023-03-11T14:20:53;2.90;;;0.93;;
34711;SDS011;20941;42.408;25.634;2023-03-11T14:23:20;2.30;;;1.08;;
34711;SDS011;20941;42.408;25.634;2023-03-11T14:25:45;1.00;;;0.80;;
34711;SDS011;20941;42.408;25.634;2023-03-11T14:28:17;2.30;;;0.90;;
34711;SDS011;20941;42.408;25.634;2023-03-11T14:30:54;3.60;;;1.02;;
34711;SDS011;20941;42.408;25.634;2023-03-11T14:33:20;1.67;;;0.70;;
34711;SDS011;20941;42.408;25.634;2023-03-11T14:35:53;1.52;;;0.60;;
34711;SDS011;20941;42.408;25.634;2023-03-11T14:38:19;0.88;;;0.88;;
34711;SDS011;20941;42.408;25.634;2023-03-11T14:40:45;3.08;;;0.80;;
34711;SDS011;20941;42.408;25.634;2023-03-11T14:43:14;0.70;;;0.70;;
34711;SDS011;20941;42.408;25.634;2023-03-11T14:45:39;2.60;;;1.00;;
34711;SDS011;20941;42.408;25.634;2023-03-11T14:48:21;2.08;;;1.00;;
34711;SDS011;20941;42.408;25.634;2023-03-11T14:50:47;3.70;;;1.13;;
34711;SDS011;20941;42.408;25.634;2023-03-11T14:53:18;1.10;;;1.00;;
34711;SDS011;20941;42.408;25.634;2023-03-11T14:55:47;1.60;;;1.13;;
34711;SDS011;20941;42.408;25.634;2023-03-11T14:58:34;2.60;;;1.38;;
34711;SDS011;20941;42.408;25.634;2023-03-11T15:01:03;1.20;;;1.00;;
34711;SDS011;20941;42.408;25.634;2023-03-11T15:03:30;1.40;;;1.15;;
34711;SDS011;20941;42.408;25.634;2023-03-11T15:06:00;2.53;;;1.10;;
34711;SDS011;20941;42.408;25.634;2023-03-11T15:08:29;1.40;;;1.27;;
34711;SDS011;20941;42.408;25.634;2023-03-11T15:11:06;3.28;;;1.40;;
34711;SDS011;20941;42.408;25.634;2023-03-11T15:13:32;5.38;;;1.40;;
34711;SDS011;20941;42.408;25.634;2023-03-11T15:15:58;1.40;;;1.30;;
34711;SDS011;20941;42.408;25.634;2023-03-11T15:18:28;10.18;;;3.35;;
34711;SDS011;20941;42.408;25.634;2023-03-11T15:23:28;7.15;;;3.58;;
34711;SDS011;20941;42.408;25.634;2023-03-11T15:25:53;6.18;;;2.83;;
34711;SDS011;20941;42.408;25.634;2023-03-11T15:28:23;4.75;;;2.40;;
34711;SDS011;20941;42.408;25.634;2023-03-11T15:30:49;10.98;;;2.58;;
34711;SDS011;20941;42.408;25.634;2023-03-11T15:33:19;7.70;;;2.70;;
34711;SDS011;20941;42.408;25.634;2023-03-11T15:35:45;4.75;;;2.45;;
34711;SDS011;20941;42.408;25.634;2023-03-11T15:38:12;6.38;;;2.22;;
34711;SDS011;20941;42.408;25.634;2023-03-11T15:40:52;3.22;;;1.73;;
34711;SDS011;20941;42.408;25.634;2023-03-11T15:45:48;3.20;;;1.98;;
34711;SDS011;20941;42.408;25.634;2023-03-11T15:48:13;4.80;;;1.75;;
34711;SDS011;20941;42.408;25.634;2023-03-11T15:50:52;2.45;;;1.67;;
34711;SDS011;20941;42.408;25.634;2023-03-11T15:53:18;5.72;;;1.90;;
34711;SDS011;20941;42.408;25.634;2023-03-11T15:55:44;3.00;;;2.05;;
34711;SDS011;20941;42.408;25.634;2023-03-11T15:58:10;3.45;;;2.35;;
34711;SDS011;20941;42.408;25.634;2023-03-11T16:00:36;5.28;;;2.20;;
34711;SDS011;20941;42.408;25.634;2023-03-11T16:03:02;3.97;;;2.30;;
34711;SDS011;20941;42.408;25.634;2023-03-11T16:05:28;2.25;;;2.05;;
34711;SDS011;20941;42.408;25.634;2023-03-11T16:07:53;5.80;;;2.10;;
34711;SDS011;20941;42.408;25.634;2023-03-11T16:10:20;4.15;;;1.73;;
34711;SDS011;20941;42.408;25.634;2023-03-11T16:12:46;5.65;;;3.10;;
34711;SDS011;20941;42.408;25.634;2023-03-11T16:15:33;3.80;;;2.00;;
34711;SDS011;20941;42.408;25.634;2023-03-11T16:17:58;5.82;;;2.72;;
34711;SDS011;20941;42.408;25.634;2023-03-11T16:20:25;4.22;;;2.80;;
34711;SDS011;20941;42.408;25.634;2023-03-11T16:22:55;10.85;;;4.53;;